sensor_id;sensor_type;location;lat;lon;timestamp;temperature;humidity
41256;DHT22;26989;45.524;10.938;2023-08-21T00:01:48;25.40;98.90
41256;DHT22;26989;45.524;10.938;2023-08-21T00:04:15;25.40;98.70
41256;DHT22;26989;45.524;10.938;2023-08-21T00:06:42;25.40;98.50
41256;DHT22;26989;45.524;10.938;2023-08-21T00:09:08;25.50;98.40
41256;DHT22;26989;45.524;10.938;2023-08-21T00:11:35;25.50;98.30
41256;DHT22;26989;45.524;10.938;2023-08-21T00:14:02;25.50;98.30
41256;DHT22;26989;45.524;10.938;2023-08-21T00:16:30;25.50;98.20
41256;DHT22;26989;45.524;10.938;2023-08-21T00:18:58;25.60;97.90
41256;DHT22;26989;45.524;10.938;2023-08-21T00:21:24;25.60;97.80
41256;DHT22;26989;45.524;10.938;2023-08-21T00:23:51;25.60;97.80
41256;DHT22;26989;45.524;10.938;2023-08-21T00:26:18;25.50;97.80
41256;DHT22;26989;45.524;10.938;2023-08-21T00:28:45;25.40;97.70
41256;DHT22;26989;45.524;10.938;2023-08-21T00:31:12;25.50;97.70
41256;DHT22;26989;45.524;10.938;2023-08-21T00:33:39;25.40;97.60
41256;DHT22;26989;45.524;10.938;2023-08-21T00:36:06;25.50;97.50
41256;DHT22;26989;45.524;10.938;2023-08-21T00:38:33;25.60;97.20
41256;DHT22;26989;45.524;10.938;2023-08-21T00:41:00;25.60;97.30
41256;DHT22;26989;45.524;10.938;2023-08-21T00:43:27;25.50;97.50
41256;DHT22;26989;45.524;10.938;2023-08-21T00:45:54;25.40;97.40
41256;DHT22;26989;45.524;10.938;2023-08-21T00:48:21;25.60;97.20
41256;DHT22;26989;45.524;10.938;2023-08-21T00:50:48;25.50;97.30
41256;DHT22;26989;45.524;10.938;2023-08-21T00:53:16;25.40;97.40
41256;DHT22;26989;45.524;10.938;2023-08-21T00:55:43;25.40;97.40
41256;DHT22;26989;45.524;10.938;2023-08-21T00:58:10;25.40;97.40
41256;DHT22;26989;45.524;10.938;2023-08-21T01:00:41;25.40;97.40
41256;DHT22;26989;45.524;10.938;2023-08-21T01:03:08;25.40;97.20
41256;DHT22;26989;45.524;10.938;2023-08-21T01:05:36;25.40;97.20
41256;DHT22;26989;45.524;10.938;2023-08-21T01:08:06;25.40;97.20
41256;DHT22;26989;45.524;10.938;2023-08-21T01:16:05;25.40;96.90
41256;DHT22;26989;45.524;10.938;2023-08-21T01:18:33;25.30;97.00
41256;DHT22;26989;45.524;10.938;2023-08-21T01:21:02;25.20;97.00
41256;DHT22;26989;45.524;10.938;2023-08-21T01:23:37;25.20;97.10
41256;DHT22;26989;45.524;10.938;2023-08-21T01:26:05;25.20;97.00
41256;DHT22;26989;45.524;10.938;2023-08-21T01:28:32;25.20;97.00
41256;DHT22;26989;45.524;10.938;2023-08-21T01:31:09;25.30;96.70
41256;DHT22;26989;45.524;10.938;2023-08-21T01:33:44;25.30;96.80
41256;DHT22;26989;45.524;10.938;2023-08-21T01:36:13;25.20;96.90
41256;DHT22;26989;45.524;10.938;2023-08-21T01:38:40;25.20;96.70
41256;DHT22;26989;45.524;10.938;2023-08-21T01:41:08;25.30;96.70
41256;DHT22;26989;45.524;10.938;2023-08-21T01:43:34;25.30;96.60
41256;DHT22;26989;45.524;10.938;2023-08-21T01:46:02;25.20;96.70
41256;DHT22;26989;45.524;10.938;2023-08-21T01:48:30;25.20;96.70
41256;DHT22;26989;45.524;10.938;2023-08-21T01:50:57;25.10;96.70
41256;DHT22;26989;45.524;10.938;2023-08-21T01:53:24;25.20;96.60
41256;DHT22;26989;45.524;10.938;2023-08-21T01:55:51;25.20;96.60
41256;DHT22;26989;45.524;10.938;2023-08-21T01:58:18;25.30;96.50
41256;DHT22;26989;45.524;10.938;2023-08-21T02:00:48;25.30;96.40
41256;DHT22;26989;45.524;10.938;2023-08-21T02:03:15;25.30;96.50
41256;DHT22;26989;45.524;10.938;2023-08-21T02:05:42;25.40;96.20
41256;DHT22;26989;45.524;10.938;2023-08-21T02:08:12;25.50;95.90
41256;DHT22;26989;45.524;10.938;2023-08-21T02:10:50;25.50;96.00
41256;DHT22;26989;45.524;10.938;2023-08-21T02:13:18;25.50;96.10
41256;DHT22;26989;45.524;10.938;2023-08-21T02:15:45;25.60;95.90
41256;DHT22;26989;45.524;10.938;2023-08-21T02:18:12;25.50;95.90
41256;DHT22;26989;45.524;10.938;2023-08-21T02:20:39;25.60;95.90
41256;DHT22;26989;45.524;10.938;2023-08-21T02:23:06;25.50;95.90
41256;DHT22;26989;45.524;10.938;2023-08-21T02:25:33;25.30;96.20
41256;DHT22;26989;45.524;10.938;2023-08-21T02:28:00;25.30;96.20
41256;DHT22;26989;45.524;10.938;2023-08-21T02:30:28;25.30;96.30
41256;DHT22;26989;45.524;10.938;2023-08-21T02:32:55;25.30;96.20
41256;DHT22;26989;45.524;10.938;2023-08-21T02:35:22;25.30;96.10
41256;DHT22;26989;45.524;10.938;2023-08-21T02:37:49;25.30;96.20
41256;DHT22;26989;45.524;10.938;2023-08-21T02:40:16;25.30;96.10
41256;DHT22;26989;45.524;10.938;2023-08-21T02:42:43;25.30;96.10
41256;DHT22;26989;45.524;10.938;2023-08-21T02:45:10;25.30;96.20
41256;DHT22;26989;45.524;10.938;2023-08-21T02:47:38;25.30;96.10
41256;DHT22;26989;45.524;10.938;2023-08-21T02:50:06;25.40;96.10
41256;DHT22;26989;45.524;10.938;2023-08-21T02:52:34;25.40;95.90
41256;DHT22;26989;45.524;10.938;2023-08-21T02:55:03;25.50;95.90
41256;DHT22;26989;45.524;10.938;2023-08-21T02:57:30;25.40;96.00
41256;DHT22;26989;45.524;10.938;2023-08-21T02:59:57;25.50;96.00
41256;DHT22;26989;45.524;10.938;2023-08-21T03:02:24;25.40;95.90
41256;DHT22;26989;45.524;10.938;2023-08-21T03:04:52;25.30;96.10
41256;DHT22;26989;45.524;10.938;2023-08-21T03:07:19;25.30;96.20
41256;DHT22;26989;45.524;10.938;2023-08-21T03:09:46;25.30;96.20
41256;DHT22;26989;45.524;10.938;2023-08-21T03:12:14;25.40;96.30
41256;DHT22;26989;45.524;10.938;2023-08-21T03:14:40;25.50;96.30
41256;DHT22;26989;45.524;10.938;2023-08-21T03:17:08;25.40;96.30
41256;DHT22;26989;45.524;10.938;2023-08-21T03:19:35;25.50;96.20
41256;DHT22;26989;45.524;10.938;2023-08-21T03:22:02;25.70;96.20
41256;DHT22;26989;45.524;10.938;2023-08-21T03:24:29;25.70;96.10
41256;DHT22;26989;45.524;10.938;2023-08-21T03:26:55;25.60;96.30
41256;DHT22;26989;45.524;10.938;2023-08-21T03:29:22;25.60;96.50
41256;DHT22;26989;45.524;10.938;2023-08-21T03:31:50;25.50;96.60
41256;DHT22;26989;45.524;10.938;2023-08-21T03:34:17;25.50;96.70
41256;DHT22;26989;45.524;10.938;2023-08-21T03:36:44;25.40;96.70
41256;DHT22;26989;45.524;10.938;2023-08-21T03:39:11;25.10;97.00
41256;DHT22;26989;45.524;10.938;2023-08-21T03:41:38;25.20;97.10
41256;DHT22;26989;45.524;10.938;2023-08-21T03:44:05;25.20;97.10
41256;DHT22;26989;45.524;10.938;2023-08-21T03:46:32;25.30;97.10
41256;DHT22;26989;45.524;10.938;2023-08-21T03:48:58;25.20;97.20
41256;DHT22;26989;45.524;10.938;2023-08-21T03:51:25;25.10;97.40
41256;DHT22;26989;45.524;10.938;2023-08-21T03:53:52;24.90;97.70
41256;DHT22;26989;45.524;10.938;2023-08-21T03:56:19;24.90;97.80
41256;DHT22;26989;45.524;10.938;2023-08-21T03:58:46;24.90;97.80
41256;DHT22;26989;45.524;10.938;2023-08-21T04:01:14;24.80;98.00
41256;DHT22;26989;45.524;10.938;2023-08-21T04:03:42;24.70;98.10
41256;DHT22;26989;45.524;10.938;2023-08-21T04:06:09;24.70;98.10
41256;DHT22;26989;45.524;10.938;2023-08-21T04:08:36;24.70;98.20
41256;DHT22;26989;45.524;10.938;2023-08-21T04:11:05;24.70;98.20
41256;DHT22;26989;45.524;10.938;2023-08-21T04:13:32;24.70;98.20
41256;DHT22;26989;45.524;10.938;2023-08-21T04:15:59;24.70;98.30
41256;DHT22;26989;45.524;10.938;2023-08-21T04:18:26;24.70;98.30
41256;DHT22;26989;45.524;10.938;2023-08-21T04:21:08;24.80;98.30
41256;DHT22;26989;45.524;10.938;2023-08-21T04:23:36;24.80;98.40
41256;DHT22;26989;45.524;10.938;2023-08-21T04:26:03;24.80;98.30
41256;DHT22;26989;45.524;10.938;2023-08-21T04:28:31;24.80;98.40
41256;DHT22;26989;45.524;10.938;2023-08-21T04:30:58;24.80;98.70
41256;DHT22;26989;45.524;10.938;2023-08-21T04:33:27;24.70;98.50
41256;DHT22;26989;45.524;10.938;2023-08-21T04:35:54;24.70;98.60
41256;DHT22;26989;45.524;10.938;2023-08-21T04:38:21;24.70;98.80
41256;DHT22;26989;45.524;10.938;2023-08-21T04:40:48;24.60;99.00
41256;DHT22;26989;45.524;10.938;2023-08-21T04:43:15;24.60;99.10
41256;DHT22;26989;45.524;10.938;2023-08-21T04:45:49;24.60;99.30
41256;DHT22;26989;45.524;10.938;2023-08-21T04:48:17;24.60;99.30
41256;DHT22;26989;45.524;10.938;2023-08-21T04:50:45;24.60;99.40
41256;DHT22;26989;45.524;10.938;2023-08-21T04:53:12;24.60;99.40
41256;DHT22;26989;45.524;10.938;2023-08-21T04:55:40;24.50;99.60
41256;DHT22;26989;45.524;10.938;2023-08-21T04:58:08;24.50;99.90
41256;DHT22;26989;45.524;10.938;2023-08-21T05:00:35;24.60;99.90
41256;DHT22;26989;45.524;10.938;2023-08-21T05:03:02;24.50;99.90
41256;DHT22;26989;45.524;10.938;2023-08-21T05:05:29;24.70;99.90
41256;DHT22;26989;45.524;10.938;2023-08-21T05:07:56;24.70;99.90
41256;DHT22;26989;45.524;10.938;2023-08-21T05:10:23;24.60;99.90
41256;DHT22;26989;45.524;10.938;2023-08-21T05:12:50;24.50;99.90
41256;DHT22;26989;45.524;10.938;2023-08-21T05:15:17;24.60;99.90
41256;DHT22;26989;45.524;10.938;2023-08-21T05:17:44;25.00;99.90
41256;DHT22;26989;45.524;10.938;2023-08-21T05:20:11;25.40;99.70
41256;DHT22;26989;45.524;10.938;2023-08-21T05:22:41;25.70;99.30
41256;DHT22;26989;45.524;10.938;2023-08-21T05:25:08;26.60;98.40
41256;DHT22;26989;45.524;10.938;2023-08-21T05:27:35;26.50;98.20
41256;DHT22;26989;45.524;10.938;2023-08-21T05:30:03;27.50;97.40
41256;DHT22;26989;45.524;10.938;2023-08-21T05:32:30;27.80;96.70
41256;DHT22;26989;45.524;10.938;2023-08-21T05:34:57;28.70;96.60
41256;DHT22;26989;45.524;10.938;2023-08-21T05:37:24;28.80;96.10
41256;DHT22;26989;45.524;10.938;2023-08-21T05:39:52;29.10;95.60
41256;DHT22;26989;45.524;10.938;2023-08-21T05:42:19;29.20;95.40
41256;DHT22;26989;45.524;10.938;2023-08-21T05:44:46;29.60;95.20
41256;DHT22;26989;45.524;10.938;2023-08-21T05:47:13;29.70;95.10
41256;DHT22;26989;45.524;10.938;2023-08-21T05:49:39;29.00;95.70
41256;DHT22;26989;45.524;10.938;2023-08-21T05:52:06;28.70;96.20
41256;DHT22;26989;45.524;10.938;2023-08-21T05:54:33;28.60;96.10
41256;DHT22;26989;45.524;10.938;2023-08-21T05:57:00;28.80;96.20
41256;DHT22;26989;45.524;10.938;2023-08-21T05:59:31;29.60;95.80
41256;DHT22;26989;45.524;10.938;2023-08-21T06:01:58;29.70;95.30
41256;DHT22;26989;45.524;10.938;2023-08-21T06:04:25;30.60;94.90
41256;DHT22;26989;45.524;10.938;2023-08-21T06:06:54;30.60;94.60
41256;DHT22;26989;45.524;10.938;2023-08-21T06:09:22;29.90;94.80
41256;DHT22;26989;45.524;10.938;2023-08-21T06:11:49;31.80;94.20
41256;DHT22;26989;45.524;10.938;2023-08-21T06:14:16;32.00;93.40
41256;DHT22;26989;45.524;10.938;2023-08-21T06:16:42;31.80;93.50
41256;DHT22;26989;45.524;10.938;2023-08-21T06:19:12;33.00;93.30
41256;DHT22;26989;45.524;10.938;2023-08-21T06:21:39;31.60;92.90
41256;DHT22;26989;45.524;10.938;2023-08-21T06:24:06;31.80;93.40
41256;DHT22;26989;45.524;10.938;2023-08-21T06:26:32;31.60;93.40
41256;DHT22;26989;45.524;10.938;2023-08-21T06:28:59;34.00;92.40
41256;DHT22;26989;45.524;10.938;2023-08-21T06:31:26;35.10;92.00
41256;DHT22;26989;45.524;10.938;2023-08-21T06:33:53;37.10;90.30
41256;DHT22;26989;45.524;10.938;2023-08-21T06:36:20;35.00;90.70
41256;DHT22;26989;45.524;10.938;2023-08-21T06:38:47;35.80;90.60
41256;DHT22;26989;45.524;10.938;2023-08-21T06:41:14;35.70;90.70
41256;DHT22;26989;45.524;10.938;2023-08-21T06:43:41;34.90;91.50
41256;DHT22;26989;45.524;10.938;2023-08-21T06:46:11;34.50;91.20
41256;DHT22;26989;45.524;10.938;2023-08-21T06:48:39;33.90;91.50
41256;DHT22;26989;45.524;10.938;2023-08-21T06:51:07;35.70;91.70
41256;DHT22;26989;45.524;10.938;2023-08-21T06:53:34;32.60;92.40
41256;DHT22;26989;45.524;10.938;2023-08-21T06:56:01;31.10;94.20
41256;DHT22;26989;45.524;10.938;2023-08-21T06:58:28;30.50;95.30
41256;DHT22;26989;45.524;10.938;2023-08-21T07:00:56;29.90;94.60
41256;DHT22;26989;45.524;10.938;2023-08-21T07:03:23;30.00;94.90
41256;DHT22;26989;45.524;10.938;2023-08-21T07:05:57;30.20;93.90
41256;DHT22;26989;45.524;10.938;2023-08-21T07:08:25;30.50;93.00
41256;DHT22;26989;45.524;10.938;2023-08-21T07:10:52;30.50;93.40
41256;DHT22;26989;45.524;10.938;2023-08-21T07:13:19;30.60;93.50
41256;DHT22;26989;45.524;10.938;2023-08-21T07:15:47;30.70;93.10
41256;DHT22;26989;45.524;10.938;2023-08-21T07:18:14;30.80;92.70
41256;DHT22;26989;45.524;10.938;2023-08-21T07:20:41;30.90;92.50
41256;DHT22;26989;45.524;10.938;2023-08-21T07:23:08;31.00;92.70
41256;DHT22;26989;45.524;10.938;2023-08-21T07:25:35;31.10;92.80
41256;DHT22;26989;45.524;10.938;2023-08-21T07:28:02;31.20;92.90
41256;DHT22;26989;45.524;10.938;2023-08-21T07:30:29;31.10;92.50
41256;DHT22;26989;45.524;10.938;2023-08-21T07:32:56;31.10;92.40
41256;DHT22;26989;45.524;10.938;2023-08-21T07:35:23;31.10;92.60
41256;DHT22;26989;45.524;10.938;2023-08-21T07:37:49;31.20;92.40
41256;DHT22;26989;45.524;10.938;2023-08-21T07:40:16;31.20;92.40
41256;DHT22;26989;45.524;10.938;2023-08-21T07:42:43;31.20;92.50
41256;DHT22;26989;45.524;10.938;2023-08-21T07:45:10;31.40;92.60
41256;DHT22;26989;45.524;10.938;2023-08-21T07:47:37;31.50;92.80
41256;DHT22;26989;45.524;10.938;2023-08-21T07:50:06;31.50;93.20
41256;DHT22;26989;45.524;10.938;2023-08-21T07:52:34;31.50;93.10
41256;DHT22;26989;45.524;10.938;2023-08-21T07:55:03;31.50;92.90
41256;DHT22;26989;45.524;10.938;2023-08-21T07:57:30;31.60;92.90
41256;DHT22;26989;45.524;10.938;2023-08-21T07:59:57;31.60;92.20
41256;DHT22;26989;45.524;10.938;2023-08-21T08:02:24;31.40;92.80
41256;DHT22;26989;45.524;10.938;2023-08-21T08:04:51;31.40;92.70
41256;DHT22;26989;45.524;10.938;2023-08-21T08:07:18;31.40;92.90
41256;DHT22;26989;45.524;10.938;2023-08-21T08:09:45;31.40;92.90
41256;DHT22;26989;45.524;10.938;2023-08-21T08:12:13;31.40;93.10
41256;DHT22;26989;45.524;10.938;2023-08-21T08:14:40;31.50;92.50
41256;DHT22;26989;45.524;10.938;2023-08-21T08:17:07;31.60;92.50
41256;DHT22;26989;45.524;10.938;2023-08-21T08:19:34;31.30;92.80
41256;DHT22;26989;45.524;10.938;2023-08-21T08:22:01;31.30;92.70
41256;DHT22;26989;45.524;10.938;2023-08-21T08:24:28;31.40;92.60
41256;DHT22;26989;45.524;10.938;2023-08-21T08:26:55;31.50;92.70
41256;DHT22;26989;45.524;10.938;2023-08-21T08:29:22;31.50;92.70
41256;DHT22;26989;45.524;10.938;2023-08-21T08:31:49;31.50;92.80
41256;DHT22;26989;45.524;10.938;2023-08-21T08:34:16;31.60;92.50
41256;DHT22;26989;45.524;10.938;2023-08-21T08:36:47;31.60;92.70
41256;DHT22;26989;45.524;10.938;2023-08-21T08:39:14;31.60;92.50
41256;DHT22;26989;45.524;10.938;2023-08-21T08:41:58;31.60;92.90
41256;DHT22;26989;45.524;10.938;2023-08-21T08:44:30;31.60;92.60
41256;DHT22;26989;45.524;10.938;2023-08-21T08:46:57;31.70;92.90
41256;DHT22;26989;45.524;10.938;2023-08-21T08:49:25;31.30;92.90
41256;DHT22;26989;45.524;10.938;2023-08-21T08:51:52;31.30;93.50
41256;DHT22;26989;45.524;10.938;2023-08-21T08:54:21;31.40;93.00
41256;DHT22;26989;45.524;10.938;2023-08-21T08:56:48;31.50;93.10
41256;DHT22;26989;45.524;10.938;2023-08-21T08:59:15;31.60;93.20
41256;DHT22;26989;45.524;10.938;2023-08-21T09:01:43;31.70;93.10
41256;DHT22;26989;45.524;10.938;2023-08-21T09:04:10;31.70;93.10
41256;DHT22;26989;45.524;10.938;2023-08-21T09:06:38;31.70;93.20
41256;DHT22;26989;45.524;10.938;2023-08-21T09:09:06;31.80;92.80
41256;DHT22;26989;45.524;10.938;2023-08-21T09:11:34;31.70;93.00
41256;DHT22;26989;45.524;10.938;2023-08-21T09:14:01;31.70;92.80
41256;DHT22;26989;45.524;10.938;2023-08-21T09:16:28;31.70;92.90
41256;DHT22;26989;45.524;10.938;2023-08-21T09:18:56;31.70;93.40
41256;DHT22;26989;45.524;10.938;2023-08-21T09:21:24;31.90;93.50
41256;DHT22;26989;45.524;10.938;2023-08-21T09:24:00;31.90;93.50
41256;DHT22;26989;45.524;10.938;2023-08-21T09:26:27;31.90;93.20
41256;DHT22;26989;45.524;10.938;2023-08-21T09:28:58;31.90;93.30
41256;DHT22;26989;45.524;10.938;2023-08-21T09:31:32;31.90;92.90
41256;DHT22;26989;45.524;10.938;2023-08-21T09:34:02;31.80;93.50
41256;DHT22;26989;45.524;10.938;2023-08-21T09:36:33;31.90;92.90
41256;DHT22;26989;45.524;10.938;2023-08-21T09:39:01;32.00;93.00
41256;DHT22;26989;45.524;10.938;2023-08-21T09:41:28;32.20;93.20
41256;DHT22;26989;45.524;10.938;2023-08-21T09:43:59;32.10;93.50
41256;DHT22;26989;45.524;10.938;2023-08-21T09:46:27;32.10;93.10
41256;DHT22;26989;45.524;10.938;2023-08-21T09:48:55;32.00;93.10
41256;DHT22;26989;45.524;10.938;2023-08-21T09:51:22;31.90;93.00
41256;DHT22;26989;45.524;10.938;2023-08-21T09:53:49;32.00;92.90
41256;DHT22;26989;45.524;10.938;2023-08-21T09:56:19;32.00;92.90
41256;DHT22;26989;45.524;10.938;2023-08-21T09:58:50;32.20;92.90
41256;DHT22;26989;45.524;10.938;2023-08-21T10:01:20;32.00;92.80
41256;DHT22;26989;45.524;10.938;2023-08-21T10:03:48;32.20;93.20
41256;DHT22;26989;45.524;10.938;2023-08-21T10:06:17;32.20;92.60
41256;DHT22;26989;45.524;10.938;2023-08-21T10:08:53;32.30;92.70
41256;DHT22;26989;45.524;10.938;2023-08-21T10:11:21;32.40;92.90
41256;DHT22;26989;45.524;10.938;2023-08-21T10:13:49;32.40;92.80
41256;DHT22;26989;45.524;10.938;2023-08-21T10:16:18;32.40;92.60
41256;DHT22;26989;45.524;10.938;2023-08-21T10:18:47;32.50;92.70
41256;DHT22;26989;45.524;10.938;2023-08-21T10:21:20;32.50;92.50
41256;DHT22;26989;45.524;10.938;2023-08-21T10:23:48;32.70;92.70
41256;DHT22;26989;45.524;10.938;2023-08-21T10:26:18;32.60;92.70
41256;DHT22;26989;45.524;10.938;2023-08-21T10:28:56;32.40;92.90
41256;DHT22;26989;45.524;10.938;2023-08-21T10:31:37;32.40;93.10
41256;DHT22;26989;45.524;10.938;2023-08-21T10:34:11;32.50;93.20
41256;DHT22;26989;45.524;10.938;2023-08-21T10:39:25;32.70;92.90
41256;DHT22;26989;45.524;10.938;2023-08-21T10:42:03;32.70;93.10
41256;DHT22;26989;45.524;10.938;2023-08-21T10:49:58;32.90;93.00
41256;DHT22;26989;45.524;10.938;2023-08-21T10:52:29;33.00;93.00
41256;DHT22;26989;45.524;10.938;2023-08-21T10:54:58;32.90;92.90
41256;DHT22;26989;45.524;10.938;2023-08-21T10:57:27;32.90;92.90
41256;DHT22;26989;45.524;10.938;2023-08-21T10:59:56;32.80;92.80
41256;DHT22;26989;45.524;10.938;2023-08-21T11:02:29;32.70;93.20
41256;DHT22;26989;45.524;10.938;2023-08-21T11:04:58;32.60;93.30
41256;DHT22;26989;45.524;10.938;2023-08-21T11:07:26;32.60;93.50
41256;DHT22;26989;45.524;10.938;2023-08-21T11:09:53;32.70;93.30
41256;DHT22;26989;45.524;10.938;2023-08-21T11:12:24;32.80;93.10
41256;DHT22;26989;45.524;10.938;2023-08-21T11:14:51;32.60;93.30
41256;DHT22;26989;45.524;10.938;2023-08-21T11:17:18;32.70;93.30
41256;DHT22;26989;45.524;10.938;2023-08-21T11:19:45;32.90;93.20
41256;DHT22;26989;45.524;10.938;2023-08-21T11:22:15;32.90;92.70
41256;DHT22;26989;45.524;10.938;2023-08-21T11:24:49;32.90;92.60
41256;DHT22;26989;45.524;10.938;2023-08-21T11:27:18;32.90;92.90
41256;DHT22;26989;45.524;10.938;2023-08-21T11:29:49;32.90;93.20
41256;DHT22;26989;45.524;10.938;2023-08-21T11:32:22;32.90;92.90
41256;DHT22;26989;45.524;10.938;2023-08-21T11:37:19;32.90;92.60
41256;DHT22;26989;45.524;10.938;2023-08-21T11:39:54;32.90;92.90
41256;DHT22;26989;45.524;10.938;2023-08-21T11:42:29;32.90;92.40
41256;DHT22;26989;45.524;10.938;2023-08-21T11:44:56;33.10;92.30
41256;DHT22;26989;45.524;10.938;2023-08-21T11:47:25;33.20;92.20
41256;DHT22;26989;45.524;10.938;2023-08-21T11:49:56;33.10;92.30
41256;DHT22;26989;45.524;10.938;2023-08-21T11:52:23;33.10;92.30
41256;DHT22;26989;45.524;10.938;2023-08-21T11:54:54;33.00;91.90
41256;DHT22;26989;45.524;10.938;2023-08-21T11:57:21;33.10;92.00
41256;DHT22;26989;45.524;10.938;2023-08-21T11:59:52;33.10;92.10
41256;DHT22;26989;45.524;10.938;2023-08-21T12:02:25;33.10;92.10
41256;DHT22;26989;45.524;10.938;2023-08-21T12:05:14;33.20;92.20
41256;DHT22;26989;45.524;10.938;2023-08-21T12:07:42;33.30;91.90
41256;DHT22;26989;45.524;10.938;2023-08-21T12:10:09;33.30;91.90
41256;DHT22;26989;45.524;10.938;2023-08-21T12:12:36;33.30;91.80
41256;DHT22;26989;45.524;10.938;2023-08-21T12:15:03;33.30;91.70
41256;DHT22;26989;45.524;10.938;2023-08-21T12:17:29;33.30;91.90
41256;DHT22;26989;45.524;10.938;2023-08-21T12:19:57;33.30;92.30
41256;DHT22;26989;45.524;10.938;2023-08-21T12:22:28;33.20;92.00
41256;DHT22;26989;45.524;10.938;2023-08-21T12:24:54;33.30;91.80
41256;DHT22;26989;45.524;10.938;2023-08-21T12:27:22;33.30;91.90
41256;DHT22;26989;45.524;10.938;2023-08-21T12:29:48;33.30;91.60
41256;DHT22;26989;45.524;10.938;2023-08-21T12:32:15;33.30;91.50
41256;DHT22;26989;45.524;10.938;2023-08-21T12:34:43;33.00;91.50
41256;DHT22;26989;45.524;10.938;2023-08-21T12:37:10;33.20;91.70
41256;DHT22;26989;45.524;10.938;2023-08-21T12:39:37;33.30;91.80
41256;DHT22;26989;45.524;10.938;2023-08-21T12:42:04;33.30;91.70
41256;DHT22;26989;45.524;10.938;2023-08-21T12:44:31;33.30;92.00
41256;DHT22;26989;45.524;10.938;2023-08-21T12:46:59;33.40;91.70
41256;DHT22;26989;45.524;10.938;2023-08-21T12:49:26;33.60;91.70
41256;DHT22;26989;45.524;10.938;2023-08-21T12:51:53;33.60;91.50
41256;DHT22;26989;45.524;10.938;2023-08-21T12:54:22;33.50;91.50
41256;DHT22;26989;45.524;10.938;2023-08-21T12:56:49;33.50;91.70
41256;DHT22;26989;45.524;10.938;2023-08-21T12:59:15;33.60;91.90
41256;DHT22;26989;45.524;10.938;2023-08-21T13:01:47;34.00;91.50
41256;DHT22;26989;45.524;10.938;2023-08-21T13:04:14;34.10;91.60
41256;DHT22;26989;45.524;10.938;2023-08-21T13:06:41;34.00;91.80
41256;DHT22;26989;45.524;10.938;2023-08-21T13:09:07;34.10;91.80
41256;DHT22;26989;45.524;10.938;2023-08-21T13:11:34;34.00;91.70
41256;DHT22;26989;45.524;10.938;2023-08-21T13:14:01;34.20;91.40
41256;DHT22;26989;45.524;10.938;2023-08-21T13:16:28;34.20;91.70
41256;DHT22;26989;45.524;10.938;2023-08-21T13:18:55;34.20;92.00
41256;DHT22;26989;45.524;10.938;2023-08-21T13:21:22;34.30;91.60
41256;DHT22;26989;45.524;10.938;2023-08-21T13:23:49;34.40;91.60
41256;DHT22;26989;45.524;10.938;2023-08-21T13:26:15;34.40;91.80
41256;DHT22;26989;45.524;10.938;2023-08-21T13:28:42;34.40;91.60
41256;DHT22;26989;45.524;10.938;2023-08-21T13:31:09;34.50;91.30
41256;DHT22;26989;45.524;10.938;2023-08-21T13:33:47;34.50;91.20
41256;DHT22;26989;45.524;10.938;2023-08-21T13:36:17;34.50;91.30
41256;DHT22;26989;45.524;10.938;2023-08-21T13:38:50;34.60;91.30
41256;DHT22;26989;45.524;10.938;2023-08-21T13:41:17;34.70;91.40
41256;DHT22;26989;45.524;10.938;2023-08-21T13:43:44;34.80;91.20
41256;DHT22;26989;45.524;10.938;2023-08-21T13:46:12;34.60;91.10
41256;DHT22;26989;45.524;10.938;2023-08-21T13:48:39;34.60;91.10
41256;DHT22;26989;45.524;10.938;2023-08-21T13:51:06;34.40;91.30
41256;DHT22;26989;45.524;10.938;2023-08-21T13:53:32;34.40;90.90
41256;DHT22;26989;45.524;10.938;2023-08-21T13:55:59;34.60;91.40
41256;DHT22;26989;45.524;10.938;2023-08-21T13:58:26;34.70;91.40
41256;DHT22;26989;45.524;10.938;2023-08-21T14:00:53;34.60;91.10
41256;DHT22;26989;45.524;10.938;2023-08-21T14:03:20;34.50;91.50
41256;DHT22;26989;45.524;10.938;2023-08-21T14:05:47;34.70;91.50
41256;DHT22;26989;45.524;10.938;2023-08-21T14:08:14;34.90;91.30
41256;DHT22;26989;45.524;10.938;2023-08-21T14:10:40;35.00;90.90
41256;DHT22;26989;45.524;10.938;2023-08-21T14:13:07;35.10;91.00
41256;DHT22;26989;45.524;10.938;2023-08-21T14:15:34;35.10;91.00
41256;DHT22;26989;45.524;10.938;2023-08-21T14:18:01;35.20;90.60
41256;DHT22;26989;45.524;10.938;2023-08-21T14:20:29;35.10;90.90
41256;DHT22;26989;45.524;10.938;2023-08-21T14:22:56;35.20;90.50
41256;DHT22;26989;45.524;10.938;2023-08-21T14:25:23;34.70;90.90
41256;DHT22;26989;45.524;10.938;2023-08-21T14:27:50;33.90;91.30
41256;DHT22;26989;45.524;10.938;2023-08-21T14:30:17;34.30;91.60
41256;DHT22;26989;45.524;10.938;2023-08-21T14:32:44;34.80;91.10
41256;DHT22;26989;45.524;10.938;2023-08-21T14:35:11;35.10;90.50
41256;DHT22;26989;45.524;10.938;2023-08-21T14:37:38;35.10;91.00
41256;DHT22;26989;45.524;10.938;2023-08-21T14:40:08;35.20;91.00
41256;DHT22;26989;45.524;10.938;2023-08-21T14:42:37;35.30;90.90
41256;DHT22;26989;45.524;10.938;2023-08-21T14:45:06;35.30;90.90
41256;DHT22;26989;45.524;10.938;2023-08-21T14:47:33;35.40;90.90
41256;DHT22;26989;45.524;10.938;2023-08-21T14:50:00;35.40;90.70
41256;DHT22;26989;45.524;10.938;2023-08-21T14:52:27;35.50;90.70
41256;DHT22;26989;45.524;10.938;2023-08-21T14:54:54;35.60;90.70
41256;DHT22;26989;45.524;10.938;2023-08-21T14:57:21;35.50;90.80
41256;DHT22;26989;45.524;10.938;2023-08-21T14:59:47;35.50;90.80
41256;DHT22;26989;45.524;10.938;2023-08-21T15:02:14;35.50;90.60
41256;DHT22;26989;45.524;10.938;2023-08-21T15:04:42;35.70;90.70
41256;DHT22;26989;45.524;10.938;2023-08-21T15:07:10;35.60;90.70
41256;DHT22;26989;45.524;10.938;2023-08-21T15:09:36;35.70;90.40
41256;DHT22;26989;45.524;10.938;2023-08-21T15:12:05;35.50;90.50
41256;DHT22;26989;45.524;10.938;2023-08-21T15:14:31;35.80;90.70
41256;DHT22;26989;45.524;10.938;2023-08-21T15:16:59;35.80;90.70
41256;DHT22;26989;45.524;10.938;2023-08-21T15:19:45;35.70;90.60
41256;DHT22;26989;45.524;10.938;2023-08-21T15:22:12;35.60;90.50
41256;DHT22;26989;45.524;10.938;2023-08-21T15:24:39;35.70;90.50
41256;DHT22;26989;45.524;10.938;2023-08-21T15:27:06;35.50;90.70
41256;DHT22;26989;45.524;10.938;2023-08-21T15:29:32;35.40;90.50
41256;DHT22;26989;45.524;10.938;2023-08-21T15:31:59;35.40;90.70
41256;DHT22;26989;45.524;10.938;2023-08-21T15:34:26;35.50;91.00
41256;DHT22;26989;45.524;10.938;2023-08-21T15:36:53;35.60;90.80